createdAt,value
2017-06-06T00:00:35.072Z,0
2017-06-06T00:01:45.027Z,0
2017-06-06T00:02:55.289Z,0
2017-06-06T00:04:05.243Z,0
2017-06-06T00:05:15.188Z,0
2017-06-06T00:06:25.457Z,0
2017-06-06T00:07:35.725Z,0
2017-06-06T00:08:45.987Z,0
2017-06-06T00:09:56.249Z,0
2017-06-06T00:11:06.517Z,0
2017-06-06T00:12:16.770Z,0
2017-06-06T00:13:27.032Z,0
2017-06-06T00:14:37.292Z,0
2017-06-06T00:15:47.581Z,0
2017-06-06T00:16:57.847Z,0
2017-06-06T00:18:08.144Z,0
2017-06-06T00:19:18.100Z,0
2017-06-06T00:20:28.360Z,0
2017-06-06T00:21:38.636Z,0
2017-06-06T00:22:48.589Z,0
2017-06-06T00:23:58.851Z,0
2017-06-06T00:25:09.118Z,0
2017-06-06T00:26:19.062Z,0
2017-06-06T00:27:29.327Z,0
2017-06-06T00:28:39.274Z,0
2017-06-06T00:29:49.540Z,0
2017-06-06T00:30:59.810Z,0
2017-06-06T00:32:09.757Z,0
2017-06-06T00:33:20.021Z,0
2017-06-06T00:34:30.289Z,0
2017-06-06T00:35:40.551Z,0
2017-06-06T00:36:50.813Z,0
2017-06-06T00:38:01.079Z,0
2017-06-06T00:39:11.027Z,0
2017-06-06T00:40:20.977Z,0
2017-06-06T00:41:31.240Z,0
2017-06-06T00:42:41.503Z,0
2017-06-06T00:43:51.453Z,0
2017-06-06T00:45:01.708Z,0
2017-06-06T00:46:11.354Z,0
2017-06-06T00:47:21.303Z,4
2017-06-06T00:48:31.249Z,4
2017-06-06T00:49:41.512Z,4
2017-06-06T00:50:51.460Z,4
2017-06-06T00:52:01.739Z,0
2017-06-06T00:53:12.008Z,0
2017-06-06T00:54:21.953Z,0
2017-06-06T00:55:32.218Z,0
2017-06-06T00:56:42.162Z,4
2017-06-06T00:57:52.109Z,4
2017-06-06T00:59:02.085Z,4
2017-06-06T01:00:12.348Z,4
2017-06-06T01:01:21.990Z,0
2017-06-06T01:02:32.254Z,4
2017-06-06T01:03:42.198Z,4
2017-06-06T01:04:52.458Z,4
2017-06-06T01:06:02.722Z,8
2017-06-06T01:07:12.978Z,4
2017-06-06T01:08:23.238Z,8
2017-06-06T01:09:33.502Z,8
2017-06-06T01:10:43.769Z,8
2017-06-06T01:11:53.401Z,8
2017-06-06T01:13:03.664Z,8
2017-06-06T01:14:13.613Z,12
2017-06-06T01:15:23.563Z,12
2017-06-06T01:16:33.825Z,8
2017-06-06T01:17:44.085Z,8
2017-06-06T01:18:54.342Z,12
2017-06-06T01:20:04.288Z,12
2017-06-06T01:21:14.553Z,12
2017-06-06T01:22:24.821Z,12
2017-06-06T01:23:35.093Z,12
2017-06-06T01:24:45.402Z,12
2017-06-06T01:25:55.671Z,12
2017-06-06T01:27:05.620Z,20
2017-06-06T01:28:15.881Z,20
2017-06-06T01:29:26.144Z,24
2017-06-06T01:30:36.405Z,24
2017-06-06T01:31:46.350Z,28
2017-06-06T01:32:56.607Z,28
2017-06-06T01:34:06.879Z,28
2017-06-06T01:35:17.145Z,28
2017-06-06T01:36:27.093Z,28
2017-06-06T01:37:37.348Z,32
2017-06-06T01:38:47.603Z,36
2017-06-06T01:39:57.867Z,36
2017-06-06T01:41:08.130Z,40
2017-06-06T01:42:17.456Z,44
2017-06-06T01:43:27.721Z,52
2017-06-06T01:44:37.985Z,52
2017-06-06T01:45:47.933Z,56
2017-06-06T01:46:58.199Z,68
2017-06-06T01:48:08.462Z,84
2017-06-06T01:49:18.417Z,96
2017-06-06T01:50:28.048Z,104
2017-06-06T01:51:38.318Z,112
2017-06-06T01:52:48.580Z,124
2017-06-06T01:53:58.525Z,132
2017-06-06T01:55:08.785Z,144
2017-06-06T01:56:19.094Z,156
2017-06-06T01:57:29.356Z,164
2017-06-06T01:58:39.307Z,176
2017-06-06T01:59:49.561Z,196
2017-06-06T02:00:59.819Z,204
2017-06-06T02:02:10.079Z,216
2017-06-06T02:03:20.353Z,232
2017-06-06T02:04:30.627Z,248
2017-06-06T02:05:40.575Z,260
2017-06-06T02:06:50.522Z,276
2017-06-06T02:08:00.770Z,288
2017-06-06T02:09:10.399Z,300
2017-06-06T02:10:20.030Z,304
2017-06-06T02:11:29.981Z,316
2017-06-06T02:12:40.240Z,332
2017-06-06T02:13:50.199Z,344
2017-06-06T02:15:00.460Z,368
2017-06-06T02:16:10.723Z,384
2017-06-06T02:17:20.990Z,400
2017-06-06T02:18:31.257Z,412
2017-06-06T02:19:41.526Z,432
2017-06-06T02:20:51.791Z,444
2017-06-06T02:22:02.055Z,460
2017-06-06T02:23:12.005Z,472
2017-06-06T02:24:22.264Z,480
2017-06-06T02:25:32.529Z,488
2017-06-06T02:26:42.476Z,484
2017-06-06T02:27:52.740Z,484
2017-06-06T02:29:02.685Z,492
2017-06-06T02:30:12.951Z,504
2017-06-06T02:31:23.209Z,516
2017-06-06T02:32:33.475Z,516
2017-06-06T02:33:43.735Z,492
2017-06-06T02:34:53.997Z,480
2017-06-06T02:36:04.261Z,464
2017-06-06T02:37:14.213Z,428
2017-06-06T02:38:24.477Z,416
2017-06-06T02:39:34.736Z,376
2017-06-06T02:40:44.994Z,364
2017-06-06T02:41:54.954Z,364
2017-06-06T02:43:05.212Z,380
2017-06-06T02:44:15.157Z,376
2017-06-06T02:45:25.418Z,376
2017-06-06T02:46:35.690Z,396
2017-06-06T02:47:45.951Z,436
2017-06-06T02:48:56.220Z,464
2017-06-06T02:50:06.497Z,492
2017-06-06T02:51:15.821Z,524
2017-06-06T02:52:25.768Z,556
2017-06-06T02:53:36.029Z,588
2017-06-06T02:54:45.975Z,616
2017-06-06T02:55:55.919Z,664
2017-06-06T02:57:06.189Z,712
2017-06-06T02:58:15.822Z,752
2017-06-06T02:59:26.079Z,760
2017-06-06T03:00:36.338Z,740
2017-06-06T03:01:46.600Z,712
2017-06-06T03:02:56.867Z,700
2017-06-06T03:04:07.126Z,680
2017-06-06T03:05:17.077Z,688
2017-06-06T03:06:27.339Z,724
2017-06-06T03:07:37.324Z,788
2017-06-06T03:08:47.582Z,852
2017-06-06T03:09:57.847Z,920
2017-06-06T03:11:08.105Z,1008
2017-06-06T03:12:20.365Z,1128
2017-06-06T03:13:30.634Z,1176
2017-06-06T03:14:40.894Z,1160
2017-06-06T03:15:51.154Z,1068
2017-06-06T03:17:01.416Z,952
2017-06-06T03:18:11.368Z,860
2017-06-06T03:19:21.312Z,836
2017-06-06T03:20:31.255Z,868
2017-06-06T03:21:41.521Z,860
2017-06-06T03:22:51.778Z,828
2017-06-06T03:24:02.048Z,792
2017-06-06T03:25:12.327Z,792
2017-06-06T03:26:21.962Z,796
2017-06-06T03:27:32.218Z,756
2017-06-06T03:28:42.478Z,764
2017-06-06T03:29:52.740Z,768
2017-06-06T03:31:03.001Z,752
2017-06-06T03:32:13.266Z,704
2017-06-06T03:33:23.215Z,708
2017-06-06T03:34:33.484Z,836
2017-06-06T03:35:43.740Z,928
2017-06-06T03:36:53.684Z,976
2017-06-06T03:38:03.946Z,992
2017-06-06T03:39:14.205Z,1008
2017-06-06T03:40:24.465Z,1028
2017-06-06T03:41:34.415Z,1052
2017-06-06T03:42:44.674Z,1104
2017-06-06T03:43:54.617Z,1180
2017-06-06T03:45:04.876Z,1240
2017-06-06T03:46:15.135Z,1280
2017-06-06T03:47:25.397Z,1328
2017-06-06T03:48:35.344Z,1364
2017-06-06T03:49:45.607Z,1388
2017-06-06T03:50:55.893Z,1404
2017-06-06T03:52:06.150Z,1428
2017-06-06T03:53:16.095Z,1436
2017-06-06T03:54:25.728Z,1444
2017-06-06T03:55:35.992Z,1452
2017-06-06T03:56:46.250Z,1488
2017-06-06T03:57:56.512Z,1532
2017-06-06T03:59:06.465Z,1592
2017-06-06T04:00:16.727Z,1660
2017-06-06T04:01:26.990Z,1700
2017-06-06T04:02:36.939Z,1708
2017-06-06T04:03:47.199Z,1728
2017-06-06T04:04:57.462Z,1760
2017-06-06T04:06:07.727Z,1796
2017-06-06T04:07:18.000Z,1824
2017-06-06T04:08:27.951Z,1868
2017-06-06T04:09:38.218Z,1924
2017-06-06T04:10:51.088Z,1944
2017-06-06T04:12:01.037Z,1956
2017-06-06T04:13:10.986Z,2000
2017-06-06T04:14:21.279Z,2016
2017-06-06T04:15:31.538Z,1988
2017-06-06T04:16:41.797Z,1972
2017-06-06T04:17:51.431Z,2000
2017-06-06T04:19:01.700Z,2100
2017-06-06T04:20:11.966Z,2284
2017-06-06T04:21:22.236Z,2484
2017-06-06T04:22:32.188Z,2644
2017-06-06T04:23:42.452Z,2768
2017-06-06T04:24:52.715Z,2844
2017-06-06T04:26:02.982Z,2888
2017-06-06T04:27:13.244Z,2916
2017-06-06T04:28:23.504Z,2936
2017-06-06T04:29:33.766Z,2940
2017-06-06T04:30:44.028Z,2960
2017-06-06T04:31:54.289Z,2964
2017-06-06T04:33:04.231Z,2864
2017-06-06T04:34:14.492Z,2708
2017-06-06T04:35:24.758Z,2552
2017-06-06T04:36:35.025Z,2468
2017-06-06T04:37:45.290Z,2396
2017-06-06T04:38:55.548Z,2328
2017-06-06T04:40:05.814Z,2296
2017-06-06T04:41:16.079Z,2264
2017-06-06T04:42:26.028Z,2204
2017-06-06T04:43:35.976Z,2128
2017-06-06T04:44:45.921Z,2096
2017-06-06T04:45:56.179Z,2092
2017-06-06T04:47:06.444Z,2124
2017-06-06T04:48:16.707Z,2156
2017-06-06T04:49:26.967Z,2140
2017-06-06T04:50:37.223Z,2092
2017-06-06T04:51:47.487Z,2072
2017-06-06T04:52:57.434Z,2112
2017-06-06T04:54:07.701Z,2172
2017-06-06T04:55:17.029Z,2248
2017-06-06T04:56:27.297Z,2308
2017-06-06T04:57:37.566Z,2344
2017-06-06T04:58:47.830Z,2452
2017-06-06T04:59:57.779Z,2648
2017-06-06T05:01:08.042Z,2692
2017-06-06T05:02:18.306Z,2672
2017-06-06T05:03:28.562Z,2540
2017-06-06T05:04:38.828Z,2360
2017-06-06T05:05:49.107Z,2560
2017-06-06T05:06:59.374Z,2652
2017-06-06T05:08:09.636Z,2792
2017-06-06T05:09:19.901Z,3832
2017-06-06T05:10:30.169Z,4044
2017-06-06T05:11:40.123Z,4288
2017-06-06T05:12:50.417Z,4176
2017-06-06T05:14:00.673Z,3872
2017-06-06T05:15:10.937Z,3928
2017-06-06T05:16:20.876Z,4012
2017-06-06T05:17:30.825Z,4052
2017-06-06T05:18:41.091Z,4072
2017-06-06T05:19:51.381Z,3836
2017-06-06T05:21:01.639Z,3180
2017-06-06T05:22:11.903Z,2612
2017-06-06T05:23:22.169Z,2648
2017-06-06T05:24:32.436Z,3132
2017-06-06T05:25:42.409Z,3316
2017-06-06T05:26:52.381Z,3924
2017-06-06T05:28:02.644Z,4392
2017-06-06T05:29:12.903Z,4412
2017-06-06T05:30:23.169Z,4264
2017-06-06T05:31:33.440Z,4272
2017-06-06T05:32:43.732Z,4272
2017-06-06T05:33:53.992Z,4272
2017-06-06T05:35:03.939Z,4104
2017-06-06T05:36:13.925Z,3892
2017-06-06T05:37:24.213Z,3668
2017-06-06T05:38:34.489Z,3408
2017-06-06T05:39:44.753Z,3440
2017-06-06T05:40:54.700Z,3664
2017-06-06T05:42:04.958Z,3984
2017-06-06T05:43:15.217Z,4552
2017-06-06T05:44:25.483Z,4964
2017-06-06T05:45:35.434Z,5204
2017-06-06T05:46:45.709Z,5188
2017-06-06T05:47:56.008Z,5104
2017-06-06T05:49:06.272Z,4756
2017-06-06T05:50:16.224Z,4160
2017-06-06T05:51:26.485Z,3772
2017-06-06T05:52:36.766Z,3332
2017-06-06T05:53:47.041Z,3312
2017-06-06T05:54:57.302Z,3564
2017-06-06T05:56:07.571Z,3608
2017-06-06T05:57:17.526Z,3320
2017-06-06T05:58:27.479Z,3248
2017-06-06T05:59:37.424Z,3128
2017-06-06T06:00:47.687Z,3168
2017-06-06T06:01:57.945Z,3312
2017-06-06T06:03:08.213Z,3564
2017-06-06T06:04:18.479Z,3956
2017-06-06T06:05:28.744Z,4324
2017-06-06T06:06:39.012Z,4640
2017-06-06T06:07:49.285Z,4616
2017-06-06T06:08:59.552Z,4324
2017-06-06T06:10:09.499Z,4500
2017-06-06T06:11:19.444Z,4904
2017-06-06T06:12:29.397Z,5232
2017-06-06T06:13:39.659Z,5496
2017-06-06T06:14:49.923Z,5664
2017-06-06T06:16:00.205Z,5876
2017-06-06T06:17:10.468Z,6080
2017-06-06T06:18:20.422Z,5824
2017-06-06T06:19:30.369Z,5912
2017-06-06T06:20:40.321Z,6216
2017-06-06T06:21:50.587Z,6332
2017-06-06T06:23:00.846Z,6316
2017-06-06T06:24:11.116Z,6304
2017-06-06T06:25:21.063Z,6100
2017-06-06T06:26:31.343Z,5960
2017-06-06T06:27:41.605Z,5208
2017-06-06T06:28:50.926Z,5308
2017-06-06T06:30:00.873Z,5412
2017-06-06T06:31:10.507Z,5512
2017-06-06T06:32:20.141Z,5504
2017-06-06T06:33:30.405Z,5728
2017-06-06T06:34:40.668Z,5604
2017-06-06T06:35:50.933Z,5140
2017-06-06T06:37:01.286Z,5268
2017-06-06T06:38:11.237Z,6408
2017-06-06T06:39:21.497Z,7508
2017-06-06T06:40:31.765Z,7584
2017-06-06T06:41:41.435Z,7444
2017-06-06T06:42:51.691Z,7204
2017-06-06T06:44:01.965Z,7056
2017-06-06T06:45:11.611Z,6904
2017-06-06T06:46:21.876Z,6060
2017-06-06T06:47:32.141Z,5348
2017-06-06T06:48:42.402Z,4768
2017-06-06T06:49:52.361Z,4412
2017-06-06T06:51:02.625Z,4300
2017-06-06T06:52:12.263Z,4700
2017-06-06T06:53:22.540Z,4184
2017-06-06T06:54:32.802Z,4188
2017-06-06T06:55:43.071Z,4376
2017-06-06T06:56:53.017Z,4300
2017-06-06T06:58:03.285Z,4448
2017-06-06T06:59:13.235Z,4652
2017-06-06T07:00:23.186Z,4412
2017-06-06T07:01:33.449Z,4788
2017-06-06T07:02:43.710Z,5440
2017-06-06T07:03:53.980Z,5812
2017-06-06T07:05:04.256Z,5952
2017-06-06T07:06:14.528Z,5996
2017-06-06T07:07:24.794Z,5668
2017-06-06T07:08:35.060Z,5544
2017-06-06T07:09:45.351Z,5856
2017-06-06T07:10:55.309Z,6180
2017-06-06T07:12:05.596Z,6464
2017-06-06T07:13:15.580Z,6704
2017-06-06T07:14:25.529Z,6856
2017-06-06T07:15:35.819Z,6908
2017-06-06T07:16:46.086Z,6876
2017-06-06T07:17:56.360Z,6840
2017-06-06T07:19:06.314Z,7192
2017-06-06T07:20:16.264Z,7096
2017-06-06T07:21:26.212Z,6644
2017-06-06T07:22:36.477Z,7084
2017-06-06T07:23:46.437Z,6812
2017-06-06T07:24:56.708Z,6824
2017-06-06T07:26:06.980Z,6768
2017-06-06T07:27:17.244Z,6764
2017-06-06T07:28:26.879Z,6456
2017-06-06T07:29:37.194Z,6388
2017-06-06T07:30:47.553Z,6684
2017-06-06T07:31:57.708Z,6908
2017-06-06T07:33:07.967Z,6324
2017-06-06T07:34:17.630Z,5836
2017-06-06T07:35:27.581Z,5432
2017-06-06T07:36:37.848Z,5664
2017-06-06T07:37:48.113Z,6036
2017-06-06T07:38:58.387Z,6320
2017-06-06T07:40:08.373Z,5544
2017-06-06T07:41:18.647Z,4988
2017-06-06T07:42:28.596Z,4020
2017-06-06T07:43:38.861Z,3424
2017-06-06T07:44:49.133Z,3376
2017-06-06T07:45:59.403Z,3508
2017-06-06T07:47:09.667Z,3708
2017-06-06T07:48:19.308Z,3616
2017-06-06T07:49:29.564Z,3964
2017-06-06T07:50:39.830Z,4832
2017-06-06T07:51:50.095Z,5584
2017-06-06T07:53:00.054Z,7932
2017-06-06T07:54:10.328Z,8356
2017-06-06T07:55:20.280Z,7436
2017-06-06T07:56:30.232Z,7508
2017-06-06T07:57:40.500Z,9736
2017-06-06T07:58:50.767Z,10868
2017-06-06T08:00:00.715Z,9568
2017-06-06T08:01:10.044Z,7548
2017-06-06T08:02:19.681Z,6940
2017-06-06T08:03:29.951Z,7184
2017-06-06T08:04:40.215Z,6944
2017-06-06T08:05:50.171Z,6464
2017-06-06T08:07:00.441Z,7576
2017-06-06T08:08:10.083Z,8440
2017-06-06T08:09:19.713Z,9064
2017-06-06T08:10:29.670Z,9708
2017-06-06T08:11:39.941Z,10080
2017-06-06T08:12:50.204Z,10004
2017-06-06T08:14:00.471Z,9728
2017-06-06T08:15:10.748Z,10000
2017-06-06T08:16:21.029Z,11448
2017-06-06T08:17:30.983Z,11128
2017-06-06T08:18:41.004Z,10944
2017-06-06T08:19:51.325Z,11008
2017-06-06T08:21:01.303Z,11220
2017-06-06T08:22:11.256Z,10356
2017-06-06T08:23:21.528Z,9420
2017-06-06T08:24:31.479Z,9312
2017-06-06T08:25:41.751Z,8836
2017-06-06T08:26:51.702Z,7976
2017-06-06T08:28:01.998Z,7280
2017-06-06T08:29:11.951Z,5740
2017-06-06T08:30:22.219Z,5176
2017-06-06T08:31:32.479Z,6220
2017-06-06T08:32:42.745Z,7316
2017-06-06T08:33:52.380Z,6204
2017-06-06T08:35:02.646Z,6124
2017-06-06T08:36:12.608Z,6560
2017-06-06T08:37:22.562Z,5776
2017-06-06T08:38:32.829Z,7008
2017-06-06T08:39:42.793Z,5048
2017-06-06T08:40:53.064Z,5380
2017-06-06T08:42:03.335Z,5780
2017-06-06T08:43:13.601Z,4752
2017-06-06T08:44:23.862Z,5012
2017-06-06T08:45:33.810Z,4784
2017-06-06T08:46:44.070Z,4568
2017-06-06T08:47:54.339Z,4732
2017-06-06T08:49:04.606Z,5012
2017-06-06T08:50:14.869Z,6132
2017-06-06T08:51:24.820Z,5700
2017-06-06T08:52:35.102Z,6708
2017-06-06T08:53:45.367Z,7424
2017-06-06T08:54:55.645Z,7576
2017-06-06T08:56:05.908Z,5752
2017-06-06T08:57:15.856Z,5732
2017-06-06T08:58:25.804Z,5856
2017-06-06T08:59:35.752Z,5848
2017-06-06T09:00:46.016Z,6408
2017-06-06T09:01:56.284Z,7856
2017-06-06T09:03:06.241Z,8096
2017-06-06T09:04:16.507Z,8448
2017-06-06T09:05:26.773Z,9876
2017-06-06T09:06:36.724Z,10196
2017-06-06T09:07:46.988Z,9852
2017-06-06T09:08:57.256Z,10128
2017-06-06T09:10:07.206Z,11240
2017-06-06T09:11:17.481Z,10636
2017-06-06T09:12:27.746Z,10168
2017-06-06T09:13:37.383Z,8180
2017-06-06T09:14:47.653Z,6472
2017-06-06T09:15:57.919Z,5872
2017-06-06T09:17:08.192Z,6836
2017-06-06T09:18:18.457Z,8516
2017-06-06T09:19:28.421Z,8152
2017-06-06T09:20:38.682Z,7468
2017-06-06T09:21:48.636Z,7972
2017-06-06T09:22:58.908Z,6676
2017-06-06T09:24:08.859Z,6132
2017-06-06T09:25:18.813Z,5916
2017-06-06T09:26:29.137Z,4844
2017-06-06T09:27:39.403Z,4908
2017-06-06T09:28:49.350Z,4544
2017-06-06T09:29:59.617Z,4104
2017-06-06T09:31:09.884Z,3872
2017-06-06T09:32:19.830Z,3952
2017-06-06T09:33:29.480Z,4012
2017-06-06T09:34:39.433Z,4848
2017-06-06T09:35:49.701Z,5716
2017-06-06T09:36:59.659Z,6032
2017-06-06T09:38:09.973Z,6212
2017-06-06T09:39:19.928Z,6896
2017-06-06T09:40:29.879Z,8332
2017-06-06T09:41:40.179Z,8256
2017-06-06T09:42:50.444Z,8364
2017-06-06T09:44:00.396Z,8348
2017-06-06T09:45:10.415Z,7480
2017-06-06T09:46:20.669Z,6540
2017-06-06T09:47:31.009Z,6564
2017-06-06T09:48:41.275Z,6264
2017-06-06T09:49:51.542Z,5512
2017-06-06T09:51:01.494Z,4484
2017-06-06T09:52:11.761Z,3756
2017-06-06T09:53:21.712Z,2972
2017-06-06T09:54:31.979Z,2432
2017-06-06T09:55:42.246Z,2216
2017-06-06T09:56:52.193Z,2240
2017-06-06T09:58:01.831Z,2676
2017-06-06T09:59:12.123Z,2840
2017-06-06T10:00:21.439Z,3236
2017-06-06T10:01:31.698Z,4004
2017-06-06T10:02:41.642Z,4120
2017-06-06T10:03:51.908Z,4664
2017-06-06T10:05:02.172Z,5348
2017-06-06T10:06:12.434Z,5472
2017-06-06T10:07:22.386Z,4748
2017-06-06T10:08:32.647Z,4536
2017-06-06T10:09:42.910Z,4388
2017-06-06T10:10:53.174Z,3756
2017-06-06T10:12:03.438Z,3120
2017-06-06T10:13:12.445Z,2904
2017-06-06T10:14:22.407Z,2888
2017-06-06T10:15:32.357Z,3068
2017-06-06T10:16:42.622Z,3500
2017-06-06T10:17:52.578Z,3708
2017-06-06T10:19:02.214Z,3984
2017-06-06T10:20:11.870Z,4212
2017-06-06T10:21:21.523Z,4288
2017-06-06T10:22:31.797Z,4416
2017-06-06T10:23:41.747Z,4728
2017-06-06T10:24:52.010Z,4904
2017-06-06T10:26:01.954Z,5372
2017-06-06T10:27:12.213Z,6984
2017-06-06T10:28:22.474Z,8044
2017-06-06T10:29:32.739Z,8240
2017-06-06T10:30:43.004Z,8692
2017-06-06T10:31:53.258Z,9764
2017-06-06T10:33:03.523Z,11056
2017-06-06T10:34:13.786Z,10968
2017-06-06T10:35:24.051Z,11720
2017-06-06T10:36:34.006Z,11776
2017-06-06T10:37:44.266Z,11564
2017-06-06T10:38:54.527Z,10660
2017-06-06T10:40:04.475Z,10788
2017-06-06T10:41:14.755Z,11448
2017-06-06T10:42:25.025Z,12004
2017-06-06T10:43:35.290Z,12164
2017-06-06T10:44:45.252Z,12468
2017-06-06T10:45:55.517Z,13692
2017-06-06T10:47:05.153Z,14872
2017-06-06T10:48:15.104Z,15328
2017-06-06T10:49:25.060Z,15000
2017-06-06T10:50:35.018Z,14768
2017-06-06T10:51:44.963Z,15004
2017-06-06T10:52:54.918Z,15320
2017-06-06T10:54:04.561Z,15152
2017-06-06T10:55:14.524Z,14636
2017-06-06T10:56:24.478Z,14224
2017-06-06T10:57:34.735Z,13376
2017-06-06T10:58:44.685Z,12188
2017-06-06T10:59:54.638Z,11352
2017-06-06T11:01:04.901Z,10476
2017-06-06T11:02:14.854Z,9660
2017-06-06T11:03:24.498Z,9720
2017-06-06T11:04:34.136Z,10040
2017-06-06T11:05:44.400Z,9456
2017-06-06T11:06:54.354Z,9120
2017-06-06T11:08:04.010Z,9520
2017-06-06T11:09:14.276Z,9768
2017-06-06T11:10:23.912Z,9360
2017-06-06T11:11:33.548Z,9180
2017-06-06T11:12:43.815Z,9324
2017-06-06T11:13:53.455Z,10068
2017-06-06T11:15:03.723Z,11200
2017-06-06T11:16:13.374Z,11944
2017-06-06T11:17:23.637Z,12696
2017-06-06T11:18:33.273Z,13080
2017-06-06T11:19:43.537Z,14020
2017-06-06T11:20:53.489Z,14484
2017-06-06T11:22:03.440Z,15180
2017-06-06T11:23:13.397Z,15392
2017-06-06T11:24:23.039Z,14672
2017-06-06T11:25:33.304Z,12084
2017-06-06T11:26:43.567Z,11820
2017-06-06T11:27:53.534Z,11976
2017-06-06T11:29:03.783Z,12324
2017-06-06T11:30:13.109Z,12872
2017-06-06T11:31:23.380Z,12912
2017-06-06T11:32:33.336Z,11540
2017-06-06T11:33:43.598Z,10472
2017-06-06T11:34:53.550Z,10764
2017-06-06T11:36:03.823Z,10768
2017-06-06T11:37:13.776Z,10416
2017-06-06T11:38:24.042Z,9484
2017-06-06T11:39:34.312Z,7780
2017-06-06T11:40:44.261Z,6524
2017-06-06T11:41:54.217Z,6644
2017-06-06T11:43:04.172Z,7188
2017-06-06T11:44:13.499Z,7376
2017-06-06T11:45:23.762Z,9052
2017-06-06T11:46:34.034Z,9268
2017-06-06T11:47:44.305Z,9976
2017-06-06T11:48:54.270Z,9492
2017-06-06T11:50:04.227Z,9468
2017-06-06T11:51:14.497Z,11220
2017-06-06T11:52:23.869Z,12752
2017-06-06T11:53:33.829Z,14800
2017-06-06T11:54:44.122Z,16512
2017-06-06T11:55:54.414Z,18144
2017-06-06T11:57:04.366Z,20672
2017-06-06T11:58:14.634Z,20512
2017-06-06T11:59:24.581Z,18240
2017-06-06T12:00:34.853Z,17888
2017-06-06T12:01:44.807Z,20384
2017-06-06T12:02:54.764Z,20096
2017-06-06T12:04:04.403Z,19040
2017-06-06T12:05:14.686Z,17536
2017-06-06T12:06:24.951Z,15444
2017-06-06T12:07:35.216Z,14168
2017-06-06T12:08:45.192Z,13324
2017-06-06T12:09:55.459Z,11932
2017-06-06T12:11:05.723Z,11068
2017-06-06T12:12:15.997Z,9380
2017-06-06T12:13:26.265Z,10656
2017-06-06T12:14:36.538Z,18080
2017-06-06T12:15:46.496Z,25312
2017-06-06T12:16:56.769Z,17056
2017-06-06T12:18:06.751Z,15256
2017-06-06T12:19:16.707Z,14796
2017-06-06T12:20:26.664Z,13244
2017-06-06T12:21:36.939Z,12048
2017-06-06T12:22:47.207Z,12868
2017-06-06T12:23:57.169Z,14572
2017-06-06T12:25:06.857Z,14600
2017-06-06T12:26:16.820Z,15776
2017-06-06T12:27:27.090Z,19968
2017-06-06T12:28:37.089Z,18592
2017-06-06T12:29:47.047Z,13080
2017-06-06T12:30:57.320Z,12056
2017-06-06T12:32:07.277Z,14728
2017-06-06T12:33:17.232Z,17408
2017-06-06T12:34:27.194Z,15292
2017-06-06T12:35:37.146Z,16064
2017-06-06T12:36:47.215Z,31616
2017-06-06T12:37:56.852Z,44960
2017-06-06T12:39:06.495Z,42656
2017-06-06T12:40:16.141Z,24960
2017-06-06T12:41:26.412Z,44352
2017-06-06T12:42:36.372Z,33760
2017-06-06T12:43:46.328Z,18880
2017-06-06T12:44:56.285Z,24448
2017-06-06T12:46:06.554Z,34432
2017-06-06T12:47:16.816Z,37088
2017-06-06T12:48:27.083Z,31104
2017-06-06T12:49:37.356Z,28576
2017-06-06T12:50:47.637Z,23264
2017-06-06T12:51:57.909Z,17792
2017-06-06T12:53:07.868Z,25728
2017-06-06T12:54:18.137Z,19488
2017-06-06T12:55:28.134Z,24096
2017-06-06T12:56:38.090Z,23808
2017-06-06T12:57:48.357Z,19520
2017-06-06T12:58:58.316Z,19328
2017-06-06T13:00:08.276Z,35456
2017-06-06T13:01:18.233Z,39168
2017-06-06T13:02:28.211Z,33728
2017-06-06T13:03:38.158Z,56960
2017-06-06T13:04:48.113Z,26528
2017-06-06T13:05:58.389Z,26816
2017-06-06T13:07:08.031Z,42656
2017-06-06T13:08:18.299Z,22496
2017-06-06T13:09:27.947Z,17920
2017-06-06T13:10:38.211Z,15372
2017-06-06T13:11:48.479Z,13372
2017-06-06T13:12:58.762Z,11036
2017-06-06T13:14:09.029Z,10344
2017-06-06T13:15:19.303Z,10544
2017-06-06T13:16:29.260Z,10504
2017-06-06T13:17:39.535Z,11808
2017-06-06T13:18:49.490Z,13116
2017-06-06T13:19:59.767Z,17472
2017-06-06T13:21:10.036Z,18656
2017-06-06T13:22:20.338Z,15916
2017-06-06T13:23:30.613Z,16672
2017-06-06T13:24:40.887Z,15668
2017-06-06T13:25:50.837Z,14344
2017-06-06T13:27:00.481Z,17504
2017-06-06T13:28:10.443Z,22496
2017-06-06T13:29:20.706Z,17312
2017-06-06T13:30:30.042Z,12612
2017-06-06T13:31:40.311Z,10412
2017-06-06T13:32:50.579Z,8936
2017-06-06T13:34:00.851Z,7360
2017-06-06T13:35:10.498Z,6172
2017-06-06T13:36:20.768Z,5576
2017-06-06T13:37:30.729Z,5688
2017-06-06T13:38:40.996Z,5700
2017-06-06T13:39:50.951Z,5584
2017-06-06T13:41:00.904Z,5188
2017-06-06T13:42:11.212Z,4252
2017-06-06T13:43:21.172Z,3332
2017-06-06T13:44:30.807Z,2640
2017-06-06T13:45:40.772Z,2396
2017-06-06T13:46:51.045Z,2716
2017-06-06T13:48:01.000Z,3240
2017-06-06T13:49:10.639Z,3376
2017-06-06T13:50:20.599Z,3072
2017-06-06T13:51:30.556Z,2688
2017-06-06T13:52:40.860Z,2424
2017-06-06T13:53:51.132Z,2180
2017-06-06T13:55:01.399Z,1944
2017-06-06T13:56:11.669Z,1784
2017-06-06T13:57:21.626Z,1768
2017-06-06T13:58:31.264Z,1836
2017-06-06T13:59:41.564Z,1884
2017-06-06T14:00:51.834Z,1844
2017-06-06T14:02:01.788Z,1752
2017-06-06T14:03:12.062Z,1772
2017-06-06T14:04:22.329Z,1936
2017-06-06T14:05:31.967Z,2144
2017-06-06T14:06:41.928Z,2192
2017-06-06T14:07:52.195Z,2132
2017-06-06T14:09:02.455Z,2108
2017-06-06T14:10:12.412Z,2344
2017-06-06T14:11:22.680Z,2952
2017-06-06T14:12:32.950Z,3892
2017-06-06T14:13:43.216Z,5104
2017-06-06T14:14:53.478Z,6592
2017-06-06T14:16:03.425Z,8364
2017-06-06T14:17:13.380Z,10264
2017-06-06T14:18:23.334Z,13088
2017-06-06T14:19:33.288Z,40768
2017-06-06T14:20:43.551Z,54624
2017-06-06T14:21:53.186Z,65216
2017-06-06T14:23:03.485Z,77760
2017-06-06T14:24:13.750Z,27712
2017-06-06T14:25:24.013Z,78368
2017-06-06T14:26:34.278Z,58464
2017-06-06T14:27:43.919Z,24032
2017-06-06T14:28:53.877Z,19488
2017-06-06T14:30:04.142Z,25888
2017-06-06T14:31:13.787Z,30880
2017-06-06T14:32:23.746Z,31712
2017-06-06T14:33:34.024Z,33184
2017-06-06T14:34:44.294Z,35200
2017-06-06T14:35:54.567Z,29056
2017-06-06T14:37:04.837Z,14192
2017-06-06T14:38:15.109Z,12512
2017-06-06T14:39:25.377Z,10836
2017-06-06T14:40:35.646Z,8056
2017-06-06T14:41:45.911Z,6172
2017-06-06T14:42:55.866Z,5520
2017-06-06T14:44:05.816Z,5356
2017-06-06T14:45:15.781Z,6072
2017-06-06T14:46:25.754Z,7188
2017-06-06T14:47:36.023Z,8152
2017-06-06T14:48:46.287Z,9188
2017-06-06T14:49:56.551Z,10272
2017-06-06T14:51:06.504Z,11068
2017-06-06T14:52:16.145Z,10724
2017-06-06T14:53:26.409Z,10108
2017-06-06T14:54:36.365Z,8548
2017-06-06T14:55:46.633Z,7408
2017-06-06T14:56:56.906Z,7172
2017-06-06T14:58:07.171Z,7448
2017-06-06T14:59:17.443Z,7480
2017-06-06T15:00:27.400Z,6300
2017-06-06T15:01:37.670Z,4436
2017-06-06T15:02:47.621Z,3304
2017-06-06T15:03:57.923Z,2852
2017-06-06T15:05:07.876Z,2708
2017-06-06T15:06:18.139Z,2720
2017-06-06T15:07:27.780Z,2824
2017-06-06T15:08:38.042Z,3140
2017-06-06T15:09:48.312Z,3912
2017-06-06T15:10:57.958Z,4528
2017-06-06T15:12:08.228Z,4480
2017-06-06T15:13:18.500Z,4248
2017-06-06T15:14:28.777Z,4152
2017-06-06T15:15:38.735Z,4256
2017-06-06T15:16:49.009Z,4276
2017-06-06T15:17:59.273Z,4152
2017-06-06T15:19:08.915Z,4200
2017-06-06T15:20:19.175Z,4672
2017-06-06T15:21:29.443Z,4860
2017-06-06T15:22:39.445Z,4756
2017-06-06T15:23:49.399Z,4576
2017-06-06T15:24:59.345Z,4548
2017-06-06T15:26:09.614Z,4768
2017-06-06T15:27:19.260Z,5040
2017-06-06T15:28:29.214Z,5024
2017-06-06T15:29:39.168Z,4792
2017-06-06T15:30:48.805Z,5044
2017-06-06T15:31:58.759Z,5068
2017-06-06T15:33:09.021Z,5068
2017-06-06T15:34:18.974Z,5056
2017-06-06T15:35:29.244Z,5044
2017-06-06T15:36:38.883Z,5036
2017-06-06T15:37:49.151Z,5308
2017-06-06T15:38:59.413Z,6280
2017-06-06T15:40:09.367Z,7640